sensor_id;sensor_type;location;lat;lon;timestamp;pressure;altitude;pressure_sealevel;temperature;humidity
75945;BME280;64628;50.104;14.614;2024-01-06T00:02:01;97522.90;;;7.60;42.89
75945;BME280;64628;50.104;14.614;2024-01-06T00:04:26;97521.01;;;7.25;43.03
75945;BME280;64628;50.104;14.614;2024-01-06T00:06:52;97516.99;;;7.46;43.20
75945;BME280;64628;50.104;14.614;2024-01-06T00:09:17;97514.91;;;7.31;43.07
75945;BME280;64628;50.104;14.614;2024-01-06T00:11:42;97516.16;;;7.35;42.81
75945;BME280;64628;50.104;14.614;2024-01-06T00:14:08;97512.01;;;7.58;42.69
75945;BME280;64628;50.104;14.614;2024-01-06T00:16:34;97510.89;;;7.55;42.83
75945;BME280;64628;50.104;14.614;2024-01-06T00:19:00;97508.04;;;7.26;42.89
75945;BME280;64628;50.104;14.614;2024-01-06T00:21:25;97503.72;;;7.30;42.85
75945;BME280;64628;50.104;14.614;2024-01-06T00:23:51;97499.66;;;7.34;42.71
75945;BME280;64628;50.104;14.614;2024-01-06T00:26:16;97495.52;;;7.28;42.77
75945;BME280;64628;50.104;14.614;2024-01-06T00:28:42;97491.05;;;7.26;42.80
75945;BME280;64628;50.104;14.614;2024-01-06T00:31:08;97495.75;;;7.19;42.98
75945;BME280;64628;50.104;14.614;2024-01-06T00:33:33;97497.87;;;7.41;43.14
75945;BME280;64628;50.104;14.614;2024-01-06T00:35:58;97497.42;;;7.40;43.23
75945;BME280;64628;50.104;14.614;2024-01-06T00:38:24;97497.64;;;7.42;43.27
75945;BME280;64628;50.104;14.614;2024-01-06T00:40:49;97501.45;;;7.22;43.29
75945;BME280;64628;50.104;14.614;2024-01-06T00:43:15;97500.59;;;7.48;43.30
75945;BME280;64628;50.104;14.614;2024-01-06T00:45:40;97502.18;;;7.25;43.34
75945;BME280;64628;50.104;14.614;2024-01-06T00:48:05;97505.35;;;7.57;43.26
75945;BME280;64628;50.104;14.614;2024-01-06T00:50:30;97508.73;;;7.36;43.27
75945;BME280;64628;50.104;14.614;2024-01-06T00:52:56;97511.42;;;7.66;43.17
75945;BME280;64628;50.104;14.614;2024-01-06T00:55:22;97515.19;;;7.45;43.23
75945;BME280;64628;50.104;14.614;2024-01-06T00:57:47;97517.42;;;7.49;43.17
75945;BME280;64628;50.104;14.614;2024-01-06T01:00:13;97521.76;;;7.51;43.19
75945;BME280;64628;50.104;14.614;2024-01-06T01:02:38;97522.27;;;7.51;43.19
75945;BME280;64628;50.104;14.614;2024-01-06T01:05:03;97523.95;;;7.51;43.18
75945;BME280;64628;50.104;14.614;2024-01-06T01:07:29;97521.45;;;7.80;43.14
75945;BME280;64628;50.104;14.614;2024-01-06T01:09:54;97522.33;;;7.85;43.12
75945;BME280;64628;50.104;14.614;2024-01-06T01:12:20;97522.36;;;7.66;43.09
75945;BME280;64628;50.104;14.614;2024-01-06T01:14:45;97527.69;;;7.69;42.99
75945;BME280;64628;50.104;14.614;2024-01-06T01:17:10;97533.80;;;7.69;43.03
75945;BME280;64628;50.104;14.614;2024-01-06T01:19:36;97536.83;;;7.69;43.06
75945;BME280;64628;50.104;14.614;2024-01-06T01:22:01;97540.43;;;7.72;43.09
75945;BME280;64628;50.104;14.614;2024-01-06T01:24:27;97541.32;;;7.73;43.13
75945;BME280;64628;50.104;14.614;2024-01-06T01:26:52;97544.19;;;7.29;43.08
75945;BME280;64628;50.104;14.614;2024-01-06T01:29:17;97544.68;;;7.80;43.08
75945;BME280;64628;50.104;14.614;2024-01-06T01:31:43;97548.78;;;7.82;43.06
75945;BME280;64628;50.104;14.614;2024-01-06T01:34:09;97550.22;;;7.82;43.07
75945;BME280;64628;50.104;14.614;2024-01-06T01:36:34;97551.26;;;7.86;43.04
75945;BME280;64628;50.104;14.614;2024-01-06T01:39:00;97544.98;;;8.14;43.09
75945;BME280;64628;50.104;14.614;2024-01-06T01:41:25;97542.74;;;7.71;42.99
75945;BME280;64628;50.104;14.614;2024-01-06T01:43:50;97538.12;;;8.01;42.97
75945;BME280;64628;50.104;14.614;2024-01-06T01:46:15;97535.53;;;8.04;42.85
75945;BME280;64628;50.104;14.614;2024-01-06T01:48:40;97536.86;;;8.09;42.79
75945;BME280;64628;50.104;14.614;2024-01-06T01:51:07;97539.50;;;8.13;42.76
75945;BME280;64628;50.104;14.614;2024-01-06T01:53:32;97538.29;;;8.18;42.72
75945;BME280;64628;50.104;14.614;2024-01-06T01:55:57;97535.60;;;7.93;42.79
75945;BME280;64628;50.104;14.614;2024-01-06T01:58:23;97533.54;;;8.18;42.82
75945;BME280;64628;50.104;14.614;2024-01-06T02:00:49;97540.48;;;8.15;42.98
75945;BME280;64628;50.104;14.614;2024-01-06T02:03:14;97538.75;;;8.02;43.06
75945;BME280;64628;50.104;14.614;2024-01-06T02:05:39;97539.03;;;8.05;42.94
75945;BME280;64628;50.104;14.614;2024-01-06T02:08:05;97541.83;;;8.09;42.82
75945;BME280;64628;50.104;14.614;2024-01-06T02:10:30;97542.85;;;8.14;42.67
75945;BME280;64628;50.104;14.614;2024-01-06T02:12:55;97535.15;;;8.15;42.74
75945;BME280;64628;50.104;14.614;2024-01-06T02:15:20;97536.85;;;8.18;42.79
75945;BME280;64628;50.104;14.614;2024-01-06T02:17:46;97538.49;;;8.17;42.75
75945;BME280;64628;50.104;14.614;2024-01-06T02:20:12;97535.90;;;7.99;42.96
75945;BME280;64628;50.104;14.614;2024-01-06T02:22:37;97534.93;;;7.93;43.08
75945;BME280;64628;50.104;14.614;2024-01-06T02:25:04;97536.67;;;7.91;43.14
75945;BME280;64628;50.104;14.614;2024-01-06T02:27:27;97532.99;;;7.83;43.26
75945;BME280;64628;50.104;14.614;2024-01-06T02:29:53;97534.97;;;7.63;43.29
75945;BME280;64628;50.104;14.614;2024-01-06T02:32:19;97535.29;;;7.88;43.19
75945;BME280;64628;50.104;14.614;2024-01-06T02:34:44;97535.00;;;7.83;43.26
75945;BME280;64628;50.104;14.614;2024-01-06T02:37:09;97536.10;;;7.75;43.37
75945;BME280;64628;50.104;14.614;2024-01-06T02:39:35;97538.30;;;7.97;43.65
75945;BME280;64628;50.104;14.614;2024-01-06T02:42:01;97538.96;;;7.68;43.65
75945;BME280;64628;50.104;14.614;2024-01-06T02:44:26;97535.95;;;7.58;43.62
75945;BME280;64628;50.104;14.614;2024-01-06T02:46:51;97538.08;;;7.64;43.56
75945;BME280;64628;50.104;14.614;2024-01-06T02:49:17;97538.17;;;7.88;43.46
75945;BME280;64628;50.104;14.614;2024-01-06T02:51:42;97535.63;;;7.59;43.46
75945;BME280;64628;50.104;14.614;2024-01-06T02:54:08;97533.13;;;7.88;43.36
75945;BME280;64628;50.104;14.614;2024-01-06T02:56:33;97533.76;;;7.59;43.47
75945;BME280;64628;50.104;14.614;2024-01-06T02:58:59;97534.04;;;7.79;43.65
75945;BME280;64628;50.104;14.614;2024-01-06T03:01:25;97535.00;;;7.63;43.85
75945;BME280;64628;50.104;14.614;2024-01-06T03:03:50;97535.14;;;7.20;44.21
75945;BME280;64628;50.104;14.614;2024-01-06T03:06:16;97531.26;;;7.61;44.11
75945;BME280;64628;50.104;14.614;2024-01-06T03:08:41;97531.10;;;7.49;44.12
75945;BME280;64628;50.104;14.614;2024-01-06T03:11:06;97531.86;;;7.58;44.14
75945;BME280;64628;50.104;14.614;2024-01-06T03:13:32;97528.57;;;7.57;43.95
75945;BME280;64628;50.104;14.614;2024-01-06T03:15:58;97532.06;;;7.36;44.02
75945;BME280;64628;50.104;14.614;2024-01-06T03:18:23;97533.64;;;7.64;43.95
75945;BME280;64628;50.104;14.614;2024-01-06T03:20:48;97533.13;;;7.65;44.26
75945;BME280;64628;50.104;14.614;2024-01-06T03:23:14;97537.78;;;7.69;44.31
75945;BME280;64628;50.104;14.614;2024-01-06T03:25:38;97537.55;;;7.75;44.17
75945;BME280;64628;50.104;14.614;2024-01-06T03:28:04;97534.35;;;7.70;44.23
75945;BME280;64628;50.104;14.614;2024-01-06T03:30:30;97531.17;;;7.60;44.02
75945;BME280;64628;50.104;14.614;2024-01-06T03:32:55;97529.41;;;7.79;44.16
75945;BME280;64628;50.104;14.614;2024-01-06T03:35:21;97529.56;;;7.77;44.24
75945;BME280;64628;50.104;14.614;2024-01-06T03:37:46;97530.22;;;7.53;44.33
75945;BME280;64628;50.104;14.614;2024-01-06T03:40:13;97527.17;;;7.84;44.19
75945;BME280;64628;50.104;14.614;2024-01-06T03:42:38;97528.24;;;7.85;44.33
75945;BME280;64628;50.104;14.614;2024-01-06T03:45:04;97530.83;;;7.69;44.37
75945;BME280;64628;50.104;14.614;2024-01-06T03:47:29;97532.43;;;8.02;44.21
75945;BME280;64628;50.104;14.614;2024-01-06T03:49:55;97534.69;;;7.54;44.55
75945;BME280;64628;50.104;14.614;2024-01-06T03:52:20;97535.01;;;7.46;44.71
75945;BME280;64628;50.104;14.614;2024-01-06T03:54:45;97537.54;;;7.55;44.73
75945;BME280;64628;50.104;14.614;2024-01-06T03:57:11;97537.21;;;7.58;44.62
75945;BME280;64628;50.104;14.614;2024-01-06T03:59:36;97534.36;;;7.65;44.54
75945;BME280;64628;50.104;14.614;2024-01-06T04:02:02;97533.64;;;7.69;44.61
75945;BME280;64628;50.104;14.614;2024-01-06T04:04:28;97532.22;;;7.73;44.56
75945;BME280;64628;50.104;14.614;2024-01-06T04:06:53;97530.85;;;7.72;44.52
75945;BME280;64628;50.104;14.614;2024-01-06T04:09:18;97527.04;;;7.74;44.55
75945;BME280;64628;50.104;14.614;2024-01-06T04:11:44;97524.53;;;7.57;44.41
75945;BME280;64628;50.104;14.614;2024-01-06T04:14:09;97524.67;;;7.82;44.40
75945;BME280;64628;50.104;14.614;2024-01-06T04:16:34;97521.22;;;7.85;44.36
75945;BME280;64628;50.104;14.614;2024-01-06T04:18:59;97522.47;;;7.85;44.41
75945;BME280;64628;50.104;14.614;2024-01-06T04:21:25;97522.31;;;7.83;44.42
75945;BME280;64628;50.104;14.614;2024-01-06T04:23:51;97527.20;;;7.86;44.51
75945;BME280;64628;50.104;14.614;2024-01-06T04:26:17;97528.15;;;7.87;44.44
75945;BME280;64628;50.104;14.614;2024-01-06T04:28:42;97526.33;;;7.92;44.30
75945;BME280;64628;50.104;14.614;2024-01-06T04:31:07;97526.67;;;8.10;44.29
75945;BME280;64628;50.104;14.614;2024-01-06T04:33:32;97526.69;;;7.82;44.45
75945;BME280;64628;50.104;14.614;2024-01-06T04:35:57;97527.87;;;7.75;44.68
75945;BME280;64628;50.104;14.614;2024-01-06T04:38:23;97526.65;;;7.82;44.57
75945;BME280;64628;50.104;14.614;2024-01-06T04:40:48;97523.44;;;7.86;44.61
75945;BME280;64628;50.104;14.614;2024-01-06T04:43:13;97522.93;;;7.90;44.53
75945;BME280;64628;50.104;14.614;2024-01-06T04:45:39;97529.43;;;8.18;44.54
75945;BME280;64628;50.104;14.614;2024-01-06T04:48:05;97529.76;;;7.72;44.51
75945;BME280;64628;50.104;14.614;2024-01-06T04:50:30;97534.96;;;7.96;44.60
75945;BME280;64628;50.104;14.614;2024-01-06T04:52:56;97537.95;;;7.76;44.64
75945;BME280;64628;50.104;14.614;2024-01-06T04:55:21;97541.57;;;8.03;44.61
75945;BME280;64628;50.104;14.614;2024-01-06T04:57:48;97541.62;;;8.05;44.65
75945;BME280;64628;50.104;14.614;2024-01-06T05:00:13;97544.61;;;8.06;44.65
75945;BME280;64628;50.104;14.614;2024-01-06T05:02:37;97543.24;;;8.09;44.65
75945;BME280;64628;50.104;14.614;2024-01-06T05:05:03;97543.09;;;8.09;44.61
75945;BME280;64628;50.104;14.614;2024-01-06T05:07:28;97551.80;;;7.70;44.34
75945;BME280;64628;50.104;14.614;2024-01-06T05:09:54;97558.36;;;8.21;44.11
75945;BME280;64628;50.104;14.614;2024-01-06T05:12:19;97556.30;;;8.02;44.35
75945;BME280;64628;50.104;14.614;2024-01-06T05:14:45;97553.81;;;7.79;44.35
75945;BME280;64628;50.104;14.614;2024-01-06T05:17:10;97554.55;;;7.92;44.51
75945;BME280;64628;50.104;14.614;2024-01-06T05:19:36;97551.92;;;7.83;44.65
75945;BME280;64628;50.104;14.614;2024-01-06T05:22:01;97548.25;;;7.64;44.63
75945;BME280;64628;50.104;14.614;2024-01-06T05:24:26;97548.50;;;7.88;44.72
75945;BME280;64628;50.104;14.614;2024-01-06T05:26:52;97548.76;;;7.87;44.65
75945;BME280;64628;50.104;14.614;2024-01-06T05:29:18;97552.25;;;7.75;44.88
75945;BME280;64628;50.104;14.614;2024-01-06T05:31:43;97551.42;;;7.50;45.25
75945;BME280;64628;50.104;14.614;2024-01-06T05:34:08;97554.80;;;7.45;45.41
75945;BME280;64628;50.104;14.614;2024-01-06T05:36:34;97557.58;;;7.42;45.53
75945;BME280;64628;50.104;14.614;2024-01-06T05:38:59;97562.06;;;7.64;45.55
75945;BME280;64628;50.104;14.614;2024-01-06T05:41:25;97564.39;;;7.67;45.53
75945;BME280;64628;50.104;14.614;2024-01-06T05:43:50;97568.68;;;7.20;45.88
75945;BME280;64628;50.104;14.614;2024-01-06T05:46:21;97570.31;;;7.76;45.80
75945;BME280;64628;50.104;14.614;2024-01-06T05:48:41;97571.83;;;7.57;45.79
75945;BME280;64628;50.104;14.614;2024-01-06T05:51:06;97571.73;;;7.66;45.53
75945;BME280;64628;50.104;14.614;2024-01-06T05:53:32;97575.83;;;7.40;45.53
75945;BME280;64628;50.104;14.614;2024-01-06T05:55:57;97578.56;;;7.36;45.63
75945;BME280;64628;50.104;14.614;2024-01-06T05:58:22;97583.67;;;7.40;45.55
75945;BME280;64628;50.104;14.614;2024-01-06T06:00:48;97588.36;;;7.58;45.29
75945;BME280;64628;50.104;14.614;2024-01-06T06:03:13;97594.32;;;7.65;45.18
75945;BME280;64628;50.104;14.614;2024-01-06T06:05:39;97594.08;;;7.61;45.21
75945;BME280;64628;50.104;14.614;2024-01-06T06:08:05;97596.13;;;7.56;45.24
75945;BME280;64628;50.104;14.614;2024-01-06T06:10:30;97598.56;;;7.54;45.20
75945;BME280;64628;50.104;14.614;2024-01-06T06:12:56;97599.26;;;7.47;45.17
75945;BME280;64628;50.104;14.614;2024-01-06T06:15:21;97604.31;;;7.69;45.34
75945;BME280;64628;50.104;14.614;2024-01-06T06:17:47;97610.39;;;7.29;45.54
75945;BME280;64628;50.104;14.614;2024-01-06T06:20:12;97617.13;;;7.60;45.48
75945;BME280;64628;50.104;14.614;2024-01-06T06:22:38;97616.48;;;7.38;45.50
75945;BME280;64628;50.104;14.614;2024-01-06T06:25:04;97617.65;;;7.49;45.44
75945;BME280;64628;50.104;14.614;2024-01-06T06:27:28;97619.98;;;7.84;45.16
75945;BME280;64628;50.104;14.614;2024-01-06T06:29:54;97623.12;;;7.85;45.13
75945;BME280;64628;50.104;14.614;2024-01-06T06:32:19;97627.98;;;7.58;45.13
75945;BME280;64628;50.104;14.614;2024-01-06T06:34:44;97634.59;;;7.16;45.02
75945;BME280;64628;50.104;14.614;2024-01-06T06:37:09;97636.40;;;7.76;44.77
75945;BME280;64628;50.104;14.614;2024-01-06T06:39:35;97637.46;;;7.96;44.80
75945;BME280;64628;50.104;14.614;2024-01-06T06:42:01;97637.37;;;7.71;44.84
75945;BME280;64628;50.104;14.614;2024-01-06T06:44:25;97643.41;;;7.71;44.87
75945;BME280;64628;50.104;14.614;2024-01-06T06:46:51;97646.67;;;7.64;44.90
75945;BME280;64628;50.104;14.614;2024-01-06T06:49:17;97646.48;;;7.63;44.85
75945;BME280;64628;50.104;14.614;2024-01-06T06:51:42;97649.28;;;7.54;45.08
75945;BME280;64628;50.104;14.614;2024-01-06T06:54:07;97656.50;;;7.57;45.19
75945;BME280;64628;50.104;14.614;2024-01-06T06:56:33;97662.91;;;7.90;45.00
75945;BME280;64628;50.104;14.614;2024-01-06T06:58:58;97664.56;;;7.64;45.18
75945;BME280;64628;50.104;14.614;2024-01-06T07:01:24;97663.88;;;7.84;45.25
75945;BME280;64628;50.104;14.614;2024-01-06T07:03:50;97670.62;;;7.66;45.17
75945;BME280;64628;50.104;14.614;2024-01-06T07:06:16;97667.01;;;7.56;45.09
75945;BME280;64628;50.104;14.614;2024-01-06T07:08:41;97668.60;;;7.77;45.20
75945;BME280;64628;50.104;14.614;2024-01-06T07:11:07;97672.67;;;7.61;45.19
75945;BME280;64628;50.104;14.614;2024-01-06T07:13:32;97674.30;;;7.59;45.09
75945;BME280;64628;50.104;14.614;2024-01-06T07:15:57;97678.15;;;7.64;45.11
75945;BME280;64628;50.104;14.614;2024-01-06T07:18:23;97680.18;;;7.65;45.22
75945;BME280;64628;50.104;14.614;2024-01-06T07:20:48;97682.89;;;7.45;45.15
75945;BME280;64628;50.104;14.614;2024-01-06T07:23:13;97688.16;;;7.69;45.00
75945;BME280;64628;50.104;14.614;2024-01-06T07:25:39;97688.72;;;7.59;45.12
75945;BME280;64628;50.104;14.614;2024-01-06T07:28:04;97690.06;;;7.58;45.22
75945;BME280;64628;50.104;14.614;2024-01-06T07:30:29;97692.83;;;7.62;45.27
75945;BME280;64628;50.104;14.614;2024-01-06T07:32:55;97693.01;;;7.73;45.17
75945;BME280;64628;50.104;14.614;2024-01-06T07:35:20;97695.65;;;7.76;45.00
75945;BME280;64628;50.104;14.614;2024-01-06T07:37:45;97694.75;;;7.74;45.06
75945;BME280;64628;50.104;14.614;2024-01-06T07:40:12;97700.26;;;7.49;45.21
75945;BME280;64628;50.104;14.614;2024-01-06T07:42:36;97702.64;;;7.74;45.18
75945;BME280;64628;50.104;14.614;2024-01-06T07:45:02;97706.93;;;7.88;45.11
75945;BME280;64628;50.104;14.614;2024-01-06T07:47:26;97707.77;;;7.83;45.23
75945;BME280;64628;50.104;14.614;2024-01-06T07:49:52;97707.23;;;7.86;45.19
75945;BME280;64628;50.104;14.614;2024-01-06T07:52:18;97710.13;;;8.01;45.13
75945;BME280;64628;50.104;14.614;2024-01-06T07:54:43;97713.76;;;7.64;45.04
75945;BME280;64628;50.104;14.614;2024-01-06T07:57:08;97714.86;;;8.10;44.93
75945;BME280;64628;50.104;14.614;2024-01-06T07:59:34;97716.13;;;8.14;44.76
75945;BME280;64628;50.104;14.614;2024-01-06T08:01:59;97720.19;;;7.91;44.84
75945;BME280;64628;50.104;14.614;2024-01-06T08:04:25;97724.86;;;7.95;44.88
75945;BME280;64628;50.104;14.614;2024-01-06T08:06:51;97726.22;;;7.97;44.81
75945;BME280;64628;50.104;14.614;2024-01-06T08:09:17;97722.64;;;8.00;44.90
75945;BME280;64628;50.104;14.614;2024-01-06T08:11:42;97722.93;;;8.00;44.98
75945;BME280;64628;50.104;14.614;2024-01-06T08:14:08;97721.91;;;8.01;44.92
75945;BME280;64628;50.104;14.614;2024-01-06T08:16:33;97722.36;;;8.05;44.90
75945;BME280;64628;50.104;14.614;2024-01-06T08:18:59;97721.34;;;8.10;44.84
75945;BME280;64628;50.104;14.614;2024-01-06T08:21:24;97723.17;;;8.09;44.90
75945;BME280;64628;50.104;14.614;2024-01-06T08:23:50;97727.77;;;8.13;44.97
75945;BME280;64628;50.104;14.614;2024-01-06T08:26:15;97732.29;;;8.19;44.95
75945;BME280;64628;50.104;14.614;2024-01-06T08:28:41;97734.84;;;7.97;45.01
75945;BME280;64628;50.104;14.614;2024-01-06T08:31:06;97738.53;;;8.21;44.77
75945;BME280;64628;50.104;14.614;2024-01-06T08:33:32;97741.83;;;8.22;44.91
75945;BME280;64628;50.104;14.614;2024-01-06T08:35:57;97740.41;;;7.85;44.87
75945;BME280;64628;50.104;14.614;2024-01-06T08:38:22;97742.62;;;7.95;44.70
75945;BME280;64628;50.104;14.614;2024-01-06T08:40:48;97746.56;;;7.99;45.13
75945;BME280;64628;50.104;14.614;2024-01-06T08:43:13;97745.04;;;7.86;45.17
75945;BME280;64628;50.104;14.614;2024-01-06T08:45:38;97745.16;;;8.28;44.94
75945;BME280;64628;50.104;14.614;2024-01-06T08:48:05;97746.53;;;8.10;44.88
75945;BME280;64628;50.104;14.614;2024-01-06T08:50:29;97750.57;;;8.06;45.18
75945;BME280;64628;50.104;14.614;2024-01-06T08:52:54;97754.10;;;7.86;45.37
75945;BME280;64628;50.104;14.614;2024-01-06T08:55:20;97755.67;;;8.01;45.28
75945;BME280;64628;50.104;14.614;2024-01-06T08:57:45;97757.27;;;7.82;45.30
75945;BME280;64628;50.104;14.614;2024-01-06T09:00:11;97759.53;;;7.61;45.32
75945;BME280;64628;50.104;14.614;2024-01-06T09:02:36;97765.89;;;8.03;45.38
75945;BME280;64628;50.104;14.614;2024-01-06T09:05:01;97764.01;;;8.18;45.18
75945;BME280;64628;50.104;14.614;2024-01-06T09:07:26;97762.70;;;8.15;44.95
75945;BME280;64628;50.104;14.614;2024-01-06T09:09:52;97763.15;;;8.22;45.04
75945;BME280;64628;50.104;14.614;2024-01-06T09:12:17;97762.40;;;8.25;45.24
75945;BME280;64628;50.104;14.614;2024-01-06T09:14:42;97760.60;;;8.38;45.10
75945;BME280;64628;50.104;14.614;2024-01-06T09:17:08;97764.89;;;8.45;44.96
75945;BME280;64628;50.104;14.614;2024-01-06T09:19:33;97765.94;;;8.01;45.16
75945;BME280;64628;50.104;14.614;2024-01-06T09:22:05;97767.07;;;8.40;44.63
75945;BME280;64628;50.104;14.614;2024-01-06T09:24:24;97767.48;;;8.46;44.79
75945;BME280;64628;50.104;14.614;2024-01-06T09:26:49;97765.66;;;8.05;44.51
75945;BME280;64628;50.104;14.614;2024-01-06T09:29:15;97767.11;;;8.09;44.81
75945;BME280;64628;50.104;14.614;2024-01-06T09:31:41;97768.51;;;8.22;44.40
75945;BME280;64628;50.104;14.614;2024-01-06T09:34:09;97770.23;;;8.14;44.93
75945;BME280;64628;50.104;14.614;2024-01-06T09:36:32;97773.25;;;8.55;44.74
75945;BME280;64628;50.104;14.614;2024-01-06T09:38:57;97772.72;;;8.54;44.48
75945;BME280;64628;50.104;14.614;2024-01-06T09:41:22;97775.38;;;8.77;44.47
75945;BME280;64628;50.104;14.614;2024-01-06T09:43:47;97775.14;;;8.80;44.17
75945;BME280;64628;50.104;14.614;2024-01-06T09:46:17;97778.18;;;8.85;43.90
75945;BME280;64628;50.104;14.614;2024-01-06T09:48:40;97781.47;;;9.00;44.01
75945;BME280;64628;50.104;14.614;2024-01-06T09:51:04;97787.38;;;9.20;43.84
75945;BME280;64628;50.104;14.614;2024-01-06T09:55:55;97788.29;;;9.41;43.63
75945;BME280;64628;50.104;14.614;2024-01-06T09:58:19;97788.29;;;9.53;43.64
75945;BME280;64628;50.104;14.614;2024-01-06T10:00:44;97785.37;;;9.15;43.91
75945;BME280;64628;50.104;14.614;2024-01-06T10:03:10;97782.37;;;9.61;43.39
75945;BME280;64628;50.104;14.614;2024-01-06T10:05:35;97781.46;;;9.81;42.76
75945;BME280;64628;50.104;14.614;2024-01-06T10:08:00;97779.46;;;9.59;42.37
75945;BME280;64628;50.104;14.614;2024-01-06T10:10:27;97783.07;;;9.43;42.96
75945;BME280;64628;50.104;14.614;2024-01-06T10:12:53;97779.10;;;9.53;42.56
75945;BME280;64628;50.104;14.614;2024-01-06T10:15:17;97775.81;;;9.86;43.20
75945;BME280;64628;50.104;14.614;2024-01-06T10:17:43;97767.52;;;9.93;43.32
75945;BME280;64628;50.104;14.614;2024-01-06T10:20:10;97763.84;;;9.54;43.23
75945;BME280;64628;50.104;14.614;2024-01-06T10:22:35;97764.55;;;9.72;42.87
75945;BME280;64628;50.104;14.614;2024-01-06T10:25:00;97767.40;;;9.97;42.95
75945;BME280;64628;50.104;14.614;2024-01-06T10:27:25;97767.11;;;9.63;43.12
75945;BME280;64628;50.104;14.614;2024-01-06T10:29:50;97768.87;;;9.94;43.00
75945;BME280;64628;50.104;14.614;2024-01-06T10:32:16;97770.45;;;10.02;42.94
75945;BME280;64628;50.104;14.614;2024-01-06T10:34:42;97770.95;;;9.48;42.81
75945;BME280;64628;50.104;14.614;2024-01-06T10:37:07;97770.10;;;9.64;42.62
75945;BME280;64628;50.104;14.614;2024-01-06T10:39:32;97770.17;;;9.81;42.49
75945;BME280;64628;50.104;14.614;2024-01-06T10:41:58;97771.42;;;9.28;42.86
75945;BME280;64628;50.104;14.614;2024-01-06T10:44:24;97772.00;;;9.63;42.84
75945;BME280;64628;50.104;14.614;2024-01-06T10:46:50;97772.36;;;9.31;43.31
75945;BME280;64628;50.104;14.614;2024-01-06T10:49:14;97768.09;;;9.31;42.84
75945;BME280;64628;50.104;14.614;2024-01-06T10:51:39;97771.34;;;9.11;43.30
75945;BME280;64628;50.104;14.614;2024-01-06T10:54:05;97767.22;;;9.00;43.56
75945;BME280;64628;50.104;14.614;2024-01-06T10:56:30;97766.52;;;9.07;43.42
75945;BME280;64628;50.104;14.614;2024-01-06T10:58:56;97759.92;;;8.86;43.64
75945;BME280;64628;50.104;14.614;2024-01-06T11:01:22;97752.81;;;8.86;43.74
75945;BME280;64628;50.104;14.614;2024-01-06T11:03:46;97753.35;;;9.19;43.69
75945;BME280;64628;50.104;14.614;2024-01-06T11:06:11;97753.27;;;9.20;43.58
75945;BME280;64628;50.104;14.614;2024-01-06T11:08:40;97755.45;;;9.04;43.44
75945;BME280;64628;50.104;14.614;2024-01-06T11:11:02;97758.00;;;9.27;43.20
75945;BME280;64628;50.104;14.614;2024-01-06T11:13:28;97758.64;;;9.11;43.56
75945;BME280;64628;50.104;14.614;2024-01-06T11:15:53;97753.06;;;9.02;43.52
75945;BME280;64628;50.104;14.614;2024-01-06T11:18:32;97752.30;;;9.19;43.38
75945;BME280;64628;50.104;14.614;2024-01-06T11:23:19;97751.44;;;9.08;43.44
75945;BME280;64628;50.104;14.614;2024-01-06T11:25:36;97751.15;;;9.21;43.55
75945;BME280;64628;50.104;14.614;2024-01-06T11:28:07;97749.21;;;9.27;43.50
75945;BME280;64628;50.104;14.614;2024-01-06T11:30:27;97750.18;;;9.31;43.45
75945;BME280;64628;50.104;14.614;2024-01-06T11:32:52;97752.53;;;9.24;43.48
75945;BME280;64628;50.104;14.614;2024-01-06T11:35:18;97749.97;;;9.07;43.40
75945;BME280;64628;50.104;14.614;2024-01-06T11:37:52;97751.18;;;9.34;43.37
75945;BME280;64628;50.104;14.614;2024-01-06T11:40:09;97754.81;;;9.31;43.31
75945;BME280;64628;50.104;14.614;2024-01-06T11:42:34;97758.61;;;9.36;43.29
75945;BME280;64628;50.104;14.614;2024-01-06T11:45:02;97758.36;;;9.05;43.36
75945;BME280;64628;50.104;14.614;2024-01-06T11:47:24;97754.38;;;9.23;43.18
75945;BME280;64628;50.104;14.614;2024-01-06T11:49:54;97756.59;;;9.17;43.19
75945;BME280;64628;50.104;14.614;2024-01-06T11:52:15;97756.13;;;9.11;43.46
75945;BME280;64628;50.104;14.614;2024-01-06T11:54:41;97754.80;;;9.15;43.70
75945;BME280;64628;50.104;14.614;2024-01-06T11:57:06;97755.65;;;9.27;43.37
75945;BME280;64628;50.104;14.614;2024-01-06T11:59:31;97757.68;;;9.03;43.66
75945;BME280;64628;50.104;14.614;2024-01-06T12:01:56;97755.73;;;9.09;43.67
75945;BME280;64628;50.104;14.614;2024-01-06T12:04:22;97753.95;;;9.19;43.63
75945;BME280;64628;50.104;14.614;2024-01-06T12:06:47;97753.19;;;9.19;43.57
75945;BME280;64628;50.104;14.614;2024-01-06T12:09:13;97755.90;;;9.29;43.33
75945;BME280;64628;50.104;14.614;2024-01-06T12:11:37;97757.17;;;9.24;43.02
75945;BME280;64628;50.104;14.614;2024-01-06T12:14:03;97757.82;;;8.98;43.58
75945;BME280;64628;50.104;14.614;2024-01-06T12:16:28;97757.74;;;8.80;43.70
75945;BME280;64628;50.104;14.614;2024-01-06T12:18:54;97754.52;;;8.76;43.95
75945;BME280;64628;50.104;14.614;2024-01-06T12:21:20;97755.35;;;8.96;43.59
75945;BME280;64628;50.104;14.614;2024-01-06T12:23:46;97756.65;;;8.78;43.91
75945;BME280;64628;50.104;14.614;2024-01-06T12:26:11;97758.51;;;8.78;43.91
75945;BME280;64628;50.104;14.614;2024-01-06T12:28:37;97759.35;;;8.78;43.95
75945;BME280;64628;50.104;14.614;2024-01-06T12:31:04;97757.02;;;8.78;43.94
75945;BME280;64628;50.104;14.614;2024-01-06T12:33:28;97757.13;;;8.84;43.96
75945;BME280;64628;50.104;14.614;2024-01-06T12:35:53;97756.12;;;8.89;43.87
75945;BME280;64628;50.104;14.614;2024-01-06T12:38:20;97758.07;;;8.70;43.36
75945;BME280;64628;50.104;14.614;2024-01-06T12:40:46;97760.29;;;8.88;43.68
75945;BME280;64628;50.104;14.614;2024-01-06T12:43:09;97762.16;;;8.91;43.70
75945;BME280;64628;50.104;14.614;2024-01-06T12:45:35;97760.39;;;8.87;43.73
75945;BME280;64628;50.104;14.614;2024-01-06T12:48:00;97755.11;;;8.89;43.39
75945;BME280;64628;50.104;14.614;2024-01-06T12:50:26;97752.87;;;8.87;43.42
75945;BME280;64628;50.104;14.614;2024-01-06T12:52:51;97752.88;;;8.87;43.50
75945;BME280;64628;50.104;14.614;2024-01-06T12:55:17;97756.53;;;8.90;43.44